sensor_id;sensor_type;location;lat;lon;timestamp;pressure;altitude;pressure_sealevel;temperature;humidity
20037;BME280;10179;42.640;23.312;2022-10-16T00:01:24;94207.81;;;12.47;53.48
20037;BME280;10179;42.640;23.312;2022-10-16T00:03:50;94327.13;;;13.02;53.54
20037;BME280;10179;42.640;23.312;2022-10-16T00:06:17;94328.22;;;13.13;53.59
20037;BME280;10179;42.640;23.312;2022-10-16T00:08:44;94307.28;;;13.00;53.53
20037;BME280;10179;42.640;23.312;2022-10-16T00:11:16;94344.47;;;13.10;53.85
20037;BME280;10179;42.640;23.312;2022-10-16T00:13:43;94339.63;;;13.07;53.71
20037;BME280;10179;42.640;23.312;2022-10-16T00:16:10;94339.63;;;13.07;53.85
20037;BME280;10179;42.640;23.312;2022-10-16T00:18:36;94336.19;;;13.06;53.72
20037;BME280;10179;42.640;23.312;2022-10-16T00:21:14;94340.56;;;13.12;53.90
20037;BME280;10179;42.640;23.312;2022-10-16T00:23:40;94321.50;;;12.99;54.02
20037;BME280;10179;42.640;23.312;2022-10-16T00:26:09;94330.94;;;12.88;54.03
20037;BME280;10179;42.640;23.312;2022-10-16T00:28:36;94196.34;;;12.23;54.03
20037;BME280;10179;42.640;23.312;2022-10-16T00:31:09;94351.13;;;13.12;54.01
20037;BME280;10179;42.640;23.312;2022-10-16T00:33:36;94329.94;;;12.89;54.09
20037;BME280;10179;42.640;23.312;2022-10-16T00:36:03;94315.59;;;12.85;53.93
20037;BME280;10179;42.640;23.312;2022-10-16T00:38:28;94285.88;;;12.23;53.96
20037;BME280;10179;42.640;23.312;2022-10-16T00:40:54;94331.25;;;12.80;54.03
20037;BME280;10179;42.640;23.312;2022-10-16T00:46:09;94351.22;;;12.87;54.26
20037;BME280;10179;42.640;23.312;2022-10-16T00:48:36;94356.50;;;12.87;54.42
20037;BME280;10179;42.640;23.312;2022-10-16T00:51:02;94349.25;;;12.83;54.43
20037;BME280;10179;42.640;23.312;2022-10-16T00:53:27;94345.03;;;12.82;54.63
20037;BME280;10179;42.640;23.312;2022-10-16T00:55:53;94347.06;;;12.80;54.42
20037;BME280;10179;42.640;23.312;2022-10-16T00:58:19;94340.03;;;12.74;54.54
20037;BME280;10179;42.640;23.312;2022-10-16T01:00:45;94277.19;;;12.40;54.85
20037;BME280;10179;42.640;23.312;2022-10-16T01:03:29;94347.34;;;12.90;54.57
20037;BME280;10179;42.640;23.312;2022-10-16T01:17:07;94360.81;;;12.63;54.34
20037;BME280;10179;42.640;23.312;2022-10-16T01:22:25;94349.91;;;12.60;54.55
20037;BME280;10179;42.640;23.312;2022-10-16T01:24:59;94348.31;;;12.59;54.48
20037;BME280;10179;42.640;23.312;2022-10-16T01:27:28;94351.19;;;12.57;54.35
20037;BME280;10179;42.640;23.312;2022-10-16T01:30:17;94342.38;;;12.63;54.50
20037;BME280;10179;42.640;23.312;2022-10-16T01:32:51;94336.97;;;12.58;54.58
20037;BME280;10179;42.640;23.312;2022-10-16T01:35:22;94358.06;;;12.58;54.69
20037;BME280;10179;42.640;23.312;2022-10-16T01:40:38;94326.56;;;12.45;54.71
20037;BME280;10179;42.640;23.312;2022-10-16T01:43:14;94319.56;;;12.57;54.88
20037;BME280;10179;42.640;23.312;2022-10-16T01:45:42;94339.75;;;12.63;54.89
20037;BME280;10179;42.640;23.312;2022-10-16T01:48:12;94320.00;;;12.54;54.90
20037;BME280;10179;42.640;23.312;2022-10-16T01:50:41;94339.09;;;12.68;54.64
20037;BME280;10179;42.640;23.312;2022-10-16T01:53:10;94348.41;;;12.71;54.74
20037;BME280;10179;42.640;23.312;2022-10-16T01:55:40;94346.34;;;12.73;54.67
20037;BME280;10179;42.640;23.312;2022-10-16T01:58:12;94321.03;;;12.53;54.49
20037;BME280;10179;42.640;23.312;2022-10-16T02:00:39;94364.41;;;12.69;54.45
20037;BME280;10179;42.640;23.312;2022-10-16T02:03:07;94352.03;;;12.70;54.71
20037;BME280;10179;42.640;23.312;2022-10-16T02:05:40;94333.38;;;12.53;54.64
20037;BME280;10179;42.640;23.312;2022-10-16T02:08:07;94322.25;;;12.51;54.75
20037;BME280;10179;42.640;23.312;2022-10-16T02:10:35;94352.78;;;12.77;55.00
20037;BME280;10179;42.640;23.312;2022-10-16T02:13:07;94236.66;;;12.05;54.97
20037;BME280;10179;42.640;23.312;2022-10-16T02:15:34;94339.31;;;12.66;54.84
20037;BME280;10179;42.640;23.312;2022-10-16T02:18:01;94218.72;;;11.95;54.63
20037;BME280;10179;42.640;23.312;2022-10-16T02:20:30;94284.66;;;12.25;54.39
20037;BME280;10179;42.640;23.312;2022-10-16T02:22:58;94346.63;;;12.64;54.30
20037;BME280;10179;42.640;23.312;2022-10-16T02:25:30;94377.22;;;12.84;54.26
20037;BME280;10179;42.640;23.312;2022-10-16T02:28:10;94379.28;;;12.82;54.41
20037;BME280;10179;42.640;23.312;2022-10-16T02:30:43;94334.19;;;12.53;54.30
20037;BME280;10179;42.640;23.312;2022-10-16T02:33:11;94363.75;;;12.74;54.31
20037;BME280;10179;42.640;23.312;2022-10-16T02:35:43;94325.69;;;12.51;54.23
20037;BME280;10179;42.640;23.312;2022-10-16T02:38:10;94270.22;;;12.09;54.15
20037;BME280;10179;42.640;23.312;2022-10-16T02:40:36;94346.28;;;12.61;54.19
20037;BME280;10179;42.640;23.312;2022-10-16T02:43:04;94382.19;;;12.74;54.40
20037;BME280;10179;42.640;23.312;2022-10-16T02:45:30;94344.81;;;12.47;54.11
20037;BME280;10179;42.640;23.312;2022-10-16T02:47:55;94340.25;;;12.35;54.44
20037;BME280;10179;42.640;23.312;2022-10-16T02:50:21;94384.69;;;12.69;54.35
20037;BME280;10179;42.640;23.312;2022-10-16T02:52:47;94335.25;;;12.27;54.33
20037;BME280;10179;42.640;23.312;2022-10-16T02:55:12;94395.25;;;12.69;54.34
20037;BME280;10179;42.640;23.312;2022-10-16T02:57:38;94371.66;;;12.55;54.40
20037;BME280;10179;42.640;23.312;2022-10-16T03:00:06;94391.22;;;12.66;54.48
20037;BME280;10179;42.640;23.312;2022-10-16T03:02:32;94327.91;;;12.11;54.34
20037;BME280;10179;42.640;23.312;2022-10-16T03:04:57;94392.44;;;12.63;54.44
20037;BME280;10179;42.640;23.312;2022-10-16T03:07:22;94391.06;;;12.61;54.50
20037;BME280;10179;42.640;23.312;2022-10-16T03:09:48;94359.50;;;12.36;54.43
20037;BME280;10179;42.640;23.312;2022-10-16T03:12:13;94395.38;;;12.55;54.58
20037;BME280;10179;42.640;23.312;2022-10-16T03:14:39;94402.72;;;12.53;54.70
20037;BME280;10179;42.640;23.312;2022-10-16T03:17:05;94428.00;;;12.36;54.72
20037;BME280;10179;42.640;23.312;2022-10-16T03:19:30;94403.56;;;12.47;54.90
20037;BME280;10179;42.640;23.312;2022-10-16T03:21:55;94400.94;;;12.47;54.85
20037;BME280;10179;42.640;23.312;2022-10-16T03:24:21;94407.25;;;12.46;55.02
20037;BME280;10179;42.640;23.312;2022-10-16T03:26:46;94408.25;;;12.45;54.96
20037;BME280;10179;42.640;23.312;2022-10-16T03:29:11;94362.66;;;12.01;54.82
20037;BME280;10179;42.640;23.312;2022-10-16T03:31:37;94381.13;;;12.20;54.92
20037;BME280;10179;42.640;23.312;2022-10-16T03:34:03;94415.78;;;12.41;54.94
20037;BME280;10179;42.640;23.312;2022-10-16T03:36:28;94368.25;;;12.11;54.93
20037;BME280;10179;42.640;23.312;2022-10-16T03:38:53;94404.53;;;12.28;54.88
20037;BME280;10179;42.640;23.312;2022-10-16T03:41:19;94425.13;;;12.37;54.71
20037;BME280;10179;42.640;23.312;2022-10-16T03:43:44;94279.28;;;11.45;54.63
20037;BME280;10179;42.640;23.312;2022-10-16T03:46:10;94359.09;;;11.89;54.63
20037;BME280;10179;42.640;23.312;2022-10-16T03:48:35;94412.72;;;12.20;54.38
20037;BME280;10179;42.640;23.312;2022-10-16T03:51:00;94406.91;;;12.11;54.44
20037;BME280;10179;42.640;23.312;2022-10-16T03:53:26;94405.59;;;12.02;54.54
20037;BME280;10179;42.640;23.312;2022-10-16T03:55:51;94404.03;;;11.94;54.63
20037;BME280;10179;42.640;23.312;2022-10-16T03:58:17;94317.63;;;11.28;54.67
20037;BME280;10179;42.640;23.312;2022-10-16T04:00:43;94324.72;;;11.27;55.14
20037;BME280;10179;42.640;23.312;2022-10-16T04:03:09;94405.69;;;11.82;55.16
20037;BME280;10179;42.640;23.312;2022-10-16T04:05:35;94405.13;;;11.80;55.31
20037;BME280;10179;42.640;23.312;2022-10-16T04:08:01;94278.34;;;11.01;55.38
20037;BME280;10179;42.640;23.312;2022-10-16T04:10:26;94383.13;;;11.67;55.31
20037;BME280;10179;42.640;23.312;2022-10-16T04:12:51;94241.31;;;10.78;55.33
20037;BME280;10179;42.640;23.312;2022-10-16T04:15:19;94202.88;;;10.45;55.24
20037;BME280;10179;42.640;23.312;2022-10-16T04:17:45;94380.00;;;11.52;55.21
20037;BME280;10179;42.640;23.312;2022-10-16T04:20:10;94403.75;;;11.70;55.43
20037;BME280;10179;42.640;23.312;2022-10-16T04:22:35;94402.13;;;11.69;55.57
20037;BME280;10179;42.640;23.312;2022-10-16T04:25:01;94391.69;;;11.56;55.57
20037;BME280;10179;42.640;23.312;2022-10-16T04:27:27;94412.88;;;11.68;55.86
20037;BME280;10179;42.640;23.312;2022-10-16T04:29:53;94433.72;;;11.69;56.00
20037;BME280;10179;42.640;23.312;2022-10-16T04:32:18;94391.28;;;11.59;56.16
20037;BME280;10179;42.640;23.312;2022-10-16T04:34:44;94422.31;;;11.76;55.85
20037;BME280;10179;42.640;23.312;2022-10-16T04:37:09;94421.91;;;11.79;56.04
20037;BME280;10179;42.640;23.312;2022-10-16T04:39:35;94423.53;;;11.80;55.95
20037;BME280;10179;42.640;23.312;2022-10-16T04:42:00;94436.47;;;11.81;56.14
20037;BME280;10179;42.640;23.312;2022-10-16T04:44:26;94389.22;;;11.61;55.99
20037;BME280;10179;42.640;23.312;2022-10-16T04:46:51;94423.72;;;11.85;55.98
20037;BME280;10179;42.640;23.312;2022-10-16T04:49:17;94286.88;;;10.96;55.82
20037;BME280;10179;42.640;23.312;2022-10-16T04:51:42;94434.63;;;11.88;55.75
20037;BME280;10179;42.640;23.312;2022-10-16T04:54:08;94430.03;;;11.77;56.03
20037;BME280;10179;42.640;23.312;2022-10-16T04:56:34;94440.28;;;11.92;55.95
20037;BME280;10179;42.640;23.312;2022-10-16T04:59:05;94384.81;;;11.55;55.99
20037;BME280;10179;42.640;23.312;2022-10-16T05:01:30;94447.31;;;11.98;55.83
20037;BME280;10179;42.640;23.312;2022-10-16T05:03:56;94455.38;;;12.03;55.78
20037;BME280;10179;42.640;23.312;2022-10-16T05:06:21;94452.13;;;12.08;55.94
20037;BME280;10179;42.640;23.312;2022-10-16T05:08:46;94409.91;;;11.83;55.64
20037;BME280;10179;42.640;23.312;2022-10-16T05:11:12;94452.50;;;12.11;55.67
20037;BME280;10179;42.640;23.312;2022-10-16T05:13:37;94389.16;;;11.36;55.34
20037;BME280;10179;42.640;23.312;2022-10-16T05:16:03;94455.72;;;12.13;55.44
20037;BME280;10179;42.640;23.312;2022-10-16T05:18:28;94336.34;;;11.44;55.57
20037;BME280;10179;42.640;23.312;2022-10-16T05:20:53;94308.75;;;11.22;55.61
20037;BME280;10179;42.640;23.312;2022-10-16T05:23:19;94452.50;;;12.11;55.60
20037;BME280;10179;42.640;23.312;2022-10-16T05:25:58;94461.25;;;12.30;55.73
20037;BME280;10179;42.640;23.312;2022-10-16T05:28:26;94426.94;;;12.18;55.99
20037;BME280;10179;42.640;23.312;2022-10-16T05:30:52;94459.09;;;12.46;56.40
20037;BME280;10179;42.640;23.312;2022-10-16T05:33:23;94351.00;;;11.90;56.55
20037;BME280;10179;42.640;23.312;2022-10-16T05:35:49;94458.00;;;12.78;56.37
20037;BME280;10179;42.640;23.312;2022-10-16T05:38:16;94429.22;;;12.77;55.96
20037;BME280;10179;42.640;23.312;2022-10-16T05:40:41;94258.94;;;11.84;55.42
20037;BME280;10179;42.640;23.312;2022-10-16T05:43:07;94458.69;;;13.29;55.20
20037;BME280;10179;42.640;23.312;2022-10-16T05:45:33;94457.31;;;13.45;55.08
20037;BME280;10179;42.640;23.312;2022-10-16T05:47:59;94462.47;;;13.70;54.47
20037;BME280;10179;42.640;23.312;2022-10-16T05:50:24;94473.09;;;13.93;54.05
20037;BME280;10179;42.640;23.312;2022-10-16T05:52:50;94467.78;;;14.12;53.39
20037;BME280;10179;42.640;23.312;2022-10-16T05:55:15;94398.34;;;13.93;52.87
20037;BME280;10179;42.640;23.312;2022-10-16T05:57:41;94458.88;;;14.60;52.63
20037;BME280;10179;42.640;23.312;2022-10-16T06:00:06;94457.06;;;14.84;51.31
20037;BME280;10179;42.640;23.312;2022-10-16T06:02:32;94462.09;;;15.09;50.38
20037;BME280;10179;42.640;23.312;2022-10-16T06:04:57;94396.69;;;14.92;49.96
20037;BME280;10179;42.640;23.312;2022-10-16T06:07:23;94498.34;;;15.84;49.24
20037;BME280;10179;42.640;23.312;2022-10-16T06:09:52;94504.44;;;16.13;48.16
20037;BME280;10179;42.640;23.312;2022-10-16T06:12:18;94506.88;;;16.31;47.22
20037;BME280;10179;42.640;23.312;2022-10-16T06:14:45;94503.91;;;16.44;46.66
20037;BME280;10179;42.640;23.312;2022-10-16T06:17:14;94509.97;;;16.57;46.36
20037;BME280;10179;42.640;23.312;2022-10-16T06:19:40;94501.59;;;16.65;46.10
20037;BME280;10179;42.640;23.312;2022-10-16T06:22:05;94514.97;;;16.87;45.45
20037;BME280;10179;42.640;23.312;2022-10-16T06:24:31;94511.50;;;17.03;45.24
20037;BME280;10179;42.640;23.312;2022-10-16T06:26:56;94515.25;;;17.24;44.98
20037;BME280;10179;42.640;23.312;2022-10-16T06:29:22;94538.44;;;17.51;44.31
20037;BME280;10179;42.640;23.312;2022-10-16T06:31:47;94491.13;;;17.70;43.73
20037;BME280;10179;42.640;23.312;2022-10-16T06:34:13;94424.22;;;17.51;42.99
20037;BME280;10179;42.640;23.312;2022-10-16T06:36:38;94512.88;;;18.38;41.73
20037;BME280;10179;42.640;23.312;2022-10-16T06:39:05;94454.25;;;18.22;41.59
20037;BME280;10179;42.640;23.312;2022-10-16T06:41:32;94452.78;;;18.36;40.80
20037;BME280;10179;42.640;23.312;2022-10-16T06:43:58;94528.38;;;19.05;40.92
20037;BME280;10179;42.640;23.312;2022-10-16T06:46:24;94520.72;;;19.14;40.18
20037;BME280;10179;42.640;23.312;2022-10-16T06:48:50;94536.09;;;19.44;40.14
20037;BME280;10179;42.640;23.312;2022-10-16T06:51:18;94436.25;;;19.04;39.12
20037;BME280;10179;42.640;23.312;2022-10-16T06:53:49;94462.56;;;19.48;38.50
20037;BME280;10179;42.640;23.312;2022-10-16T06:56:20;94537.56;;;20.30;37.80
20037;BME280;10179;42.640;23.312;2022-10-16T06:58:46;94474.78;;;20.07;37.36
20037;BME280;10179;42.640;23.312;2022-10-16T07:01:13;94558.19;;;20.60;36.27
20037;BME280;10179;42.640;23.312;2022-10-16T07:03:40;94551.25;;;20.64;36.03
20037;BME280;10179;42.640;23.312;2022-10-16T07:06:08;94551.53;;;20.72;35.90
20037;BME280;10179;42.640;23.312;2022-10-16T07:08:36;94239.94;;;18.79;35.95
20037;BME280;10179;42.640;23.312;2022-10-16T07:11:07;94569.97;;;20.94;35.91
20037;BME280;10179;42.640;23.312;2022-10-16T07:13:34;94550.50;;;20.99;35.68
20037;BME280;10179;42.640;23.312;2022-10-16T07:16:12;94556.63;;;21.10;35.68
20037;BME280;10179;42.640;23.312;2022-10-16T07:18:38;94508.00;;;20.97;35.19
20037;BME280;10179;42.640;23.312;2022-10-16T07:21:09;94530.19;;;21.24;34.90
20037;BME280;10179;42.640;23.312;2022-10-16T07:23:35;94560.06;;;21.56;34.45
20037;BME280;10179;42.640;23.312;2022-10-16T07:26:01;94519.16;;;21.51;33.99
20037;BME280;10179;42.640;23.312;2022-10-16T07:28:27;94558.94;;;21.73;33.83
20037;BME280;10179;42.640;23.312;2022-10-16T07:30:52;94558.94;;;21.73;34.24
20037;BME280;10179;42.640;23.312;2022-10-16T07:33:18;94467.63;;;21.25;33.92
20037;BME280;10179;42.640;23.312;2022-10-16T07:35:50;94480.91;;;21.60;33.65
20037;BME280;10179;42.640;23.312;2022-10-16T07:38:16;94559.50;;;22.45;32.90
20037;BME280;10179;42.640;23.312;2022-10-16T07:40:42;94533.19;;;22.02;33.45
20037;BME280;10179;42.640;23.312;2022-10-16T07:43:07;94550.56;;;22.15;32.73
20037;BME280;10179;42.640;23.312;2022-10-16T07:45:32;94554.53;;;22.18;33.07
20037;BME280;10179;42.640;23.312;2022-10-16T07:47:58;94559.81;;;22.38;32.34
20037;BME280;10179;42.640;23.312;2022-10-16T07:50:23;94441.03;;;21.69;32.44
20037;BME280;10179;42.640;23.312;2022-10-16T07:52:49;94561.34;;;22.49;32.71
20037;BME280;10179;42.640;23.312;2022-10-16T07:55:14;94473.91;;;21.75;32.76
20037;BME280;10179;42.640;23.312;2022-10-16T07:57:39;94572.16;;;22.29;33.15
20037;BME280;10179;42.640;23.312;2022-10-16T08:00:05;94601.13;;;22.17;33.33
20037;BME280;10179;42.640;23.312;2022-10-16T08:02:31;94524.72;;;21.75;33.78
20037;BME280;10179;42.640;23.312;2022-10-16T08:04:57;94583.47;;;22.05;33.30
20037;BME280;10179;42.640;23.312;2022-10-16T08:07:22;94571.75;;;21.91;33.28
20037;BME280;10179;42.640;23.312;2022-10-16T08:09:50;94576.59;;;21.84;34.12
20037;BME280;10179;42.640;23.312;2022-10-16T08:12:17;94579.78;;;21.86;33.80
20037;BME280;10179;42.640;23.312;2022-10-16T08:14:42;94577.63;;;21.98;33.65
20037;BME280;10179;42.640;23.312;2022-10-16T08:17:07;94532.78;;;21.64;33.87
20037;BME280;10179;42.640;23.312;2022-10-16T08:19:33;94570.19;;;21.80;33.98
20037;BME280;10179;42.640;23.312;2022-10-16T08:22:00;94551.78;;;21.58;33.82
20037;BME280;10179;42.640;23.312;2022-10-16T08:24:26;94580.56;;;21.86;33.49
20037;BME280;10179;42.640;23.312;2022-10-16T08:26:53;94578.44;;;21.88;32.80
20037;BME280;10179;42.640;23.312;2022-10-16T08:29:19;94572.03;;;21.84;32.65
20037;BME280;10179;42.640;23.312;2022-10-16T08:31:45;94603.34;;;21.79;33.09
20037;BME280;10179;42.640;23.312;2022-10-16T08:34:10;94528.78;;;21.57;33.19
20037;BME280;10179;42.640;23.312;2022-10-16T08:36:35;94565.88;;;21.79;32.78
20037;BME280;10179;42.640;23.312;2022-10-16T08:39:01;94561.09;;;21.71;33.25
20037;BME280;10179;42.640;23.312;2022-10-16T08:50:12;94554.72;;;21.56;33.55
20037;BME280;10179;42.640;23.312;2022-10-16T08:52:41;94561.16;;;21.50;33.24
20037;BME280;10179;42.640;23.312;2022-10-16T08:55:19;94566.47;;;21.65;33.50
20037;BME280;10179;42.640;23.312;2022-10-16T08:57:52;94509.88;;;21.17;33.29
20037;BME280;10179;42.640;23.312;2022-10-16T09:00:18;94586.00;;;21.56;32.88
20037;BME280;10179;42.640;23.312;2022-10-16T09:08:09;94583.53;;;21.85;31.19
20037;BME280;10179;42.640;23.312;2022-10-16T09:10:59;94584.00;;;22.07;30.71
20037;BME280;10179;42.640;23.312;2022-10-16T09:19:33;94563.72;;;22.56;29.92
20037;BME280;10179;42.640;23.312;2022-10-16T09:21:56;94462.09;;;21.86;29.98
20037;BME280;10179;42.640;23.312;2022-10-16T09:24:26;94539.19;;;22.38;29.50
20037;BME280;10179;42.640;23.312;2022-10-16T09:26:51;94519.75;;;22.23;29.13
20037;BME280;10179;42.640;23.312;2022-10-16T09:29:19;94555.53;;;22.32;28.64
20037;BME280;10179;42.640;23.312;2022-10-16T09:31:50;94574.81;;;22.34;29.87
20037;BME280;10179;42.640;23.312;2022-10-16T09:34:45;94575.91;;;22.28;28.74
20037;BME280;10179;42.640;23.312;2022-10-16T09:37:14;94493.22;;;21.61;29.02
20037;BME280;10179;42.640;23.312;2022-10-16T09:39:47;94581.31;;;22.18;28.87
20037;BME280;10179;42.640;23.312;2022-10-16T09:42:18;94580.22;;;22.13;29.04
20037;BME280;10179;42.640;23.312;2022-10-16T09:44:48;94572.50;;;22.07;29.18
20037;BME280;10179;42.640;23.312;2022-10-16T09:47:18;94555.72;;;21.81;29.47
20037;BME280;10179;42.640;23.312;2022-10-16T09:49:56;94563.22;;;21.79;29.55
20037;BME280;10179;42.640;23.312;2022-10-16T09:52:25;94555.53;;;21.57;29.83
20037;BME280;10179;42.640;23.312;2022-10-16T09:54:55;94561.13;;;21.60;29.39
20037;BME280;10179;42.640;23.312;2022-10-16T09:57:21;94541.38;;;21.31;29.97
20037;BME280;10179;42.640;23.312;2022-10-16T09:59:48;94530.44;;;21.17;30.10
20037;BME280;10179;42.640;23.312;2022-10-16T10:02:16;94571.31;;;21.23;30.37
20037;BME280;10179;42.640;23.312;2022-10-16T10:04:49;94568.13;;;21.20;30.58
20037;BME280;10179;42.640;23.312;2022-10-16T10:07:27;94557.97;;;21.17;30.96
20037;BME280;10179;42.640;23.312;2022-10-16T10:09:56;94497.88;;;20.69;31.09
20037;BME280;10179;42.640;23.312;2022-10-16T10:12:27;94548.34;;;20.86;30.72
20037;BME280;10179;42.640;23.312;2022-10-16T10:14:58;94530.44;;;20.66;30.80
20037;BME280;10179;42.640;23.312;2022-10-16T10:17:29;94549.66;;;20.58;30.88
20037;BME280;10179;42.640;23.312;2022-10-16T10:36:34;94547.81;;;21.25;30.31
20037;BME280;10179;42.640;23.312;2022-10-16T11:06:11;94415.31;;;20.01;29.85
20037;BME280;10179;42.640;23.312;2022-10-16T11:09:14;94506.69;;;20.80;29.95
20037;BME280;10179;42.640;23.312;2022-10-16T11:11:51;94522.72;;;20.75;30.44
20037;BME280;10179;42.640;23.312;2022-10-16T11:14:35;94518.44;;;20.68;30.19
20037;BME280;10179;42.640;23.312;2022-10-16T11:17:23;94518.94;;;20.65;30.16
20037;BME280;10179;42.640;23.312;2022-10-16T11:19:52;94518.41;;;20.58;29.07
20037;BME280;10179;42.640;23.312;2022-10-16T11:22:21;94512.28;;;20.58;28.38
20037;BME280;10179;42.640;23.312;2022-10-16T11:27:19;94493.81;;;20.46;28.30
20037;BME280;10179;42.640;23.312;2022-10-16T11:29:55;94515.75;;;20.63;28.12
20037;BME280;10179;42.640;23.312;2022-10-16T11:32:56;94462.84;;;20.40;28.00
20037;BME280;10179;42.640;23.312;2022-10-16T11:40:56;94501.34;;;20.64;27.44
20037;BME280;10179;42.640;23.312;2022-10-16T11:43:28;94513.63;;;20.76;27.24
20037;BME280;10179;42.640;23.312;2022-10-16T11:45:59;94485.84;;;20.51;26.41
20037;BME280;10179;42.640;23.312;2022-10-16T11:48:48;94522.97;;;20.78;26.85
20037;BME280;10179;42.640;23.312;2022-10-16T11:51:31;94501.09;;;20.71;27.22
20037;BME280;10179;42.640;23.312;2022-10-16T11:54:32;94509.34;;;20.69;27.27
20037;BME280;10179;42.640;23.312;2022-10-16T11:57:08;94508.81;;;20.62;27.11
20037;BME280;10179;42.640;23.312;2022-10-16T11:59:43;94424.41;;;20.05;27.69
20037;BME280;10179;42.640;23.312;2022-10-16T12:02:34;94510.41;;;20.68;26.84
20037;BME280;10179;42.640;23.312;2022-10-16T12:05:28;94509.88;;;20.66;26.75
20037;BME280;10179;42.640;23.312;2022-10-16T12:08:16;94334.66;;;19.48;26.85
20037;BME280;10179;42.640;23.312;2022-10-16T12:10:46;94445.75;;;20.31;26.80
20037;BME280;10179;42.640;23.312;2022-10-16T12:18:36;94502.94;;;20.76;28.47
20037;BME280;10179;42.640;23.312;2022-10-16T12:21:02;94499.72;;;20.84;28.42
20037;BME280;10179;42.640;23.312;2022-10-16T12:23:37;94462.34;;;20.63;27.90
20037;BME280;10179;42.640;23.312;2022-10-16T12:26:05;94492.25;;;20.76;28.47
20037;BME280;10179;42.640;23.312;2022-10-16T12:28:33;94470.91;;;20.65;28.21
20037;BME280;10179;42.640;23.312;2022-10-16T12:31:02;94508.03;;;20.82;27.69
20037;BME280;10179;42.640;23.312;2022-10-16T12:33:41;94505.63;;;20.86;27.53
20037;BME280;10179;42.640;23.312;2022-10-16T12:36:29;94512.28;;;20.88;27.71
20037;BME280;10179;42.640;23.312;2022-10-16T12:38:55;94508.81;;;20.83;26.50
20037;BME280;10179;42.640;23.312;2022-10-16T12:41:29;94512.28;;;20.88;27.05
20037;BME280;10179;42.640;23.312;2022-10-16T12:43:56;94482.09;;;20.62;27.08
20037;BME280;10179;42.640;23.312;2022-10-16T12:49:21;94509.34;;;21.00;27.95
20037;BME280;10179;42.640;23.312;2022-10-16T12:51:47;94506.66;;;20.95;27.37
20037;BME280;10179;42.640;23.312;2022-10-16T12:54:17;94515.22;;;20.97;27.15
20037;BME280;10179;42.640;23.312;2022-10-16T13:00:03;94520.03;;;21.10;27.82
20037;BME280;10179;42.640;23.312;2022-10-16T13:10:13;94515.22;;;21.07;27.80
20037;BME280;10179;42.640;23.312;2022-10-16T13:23:19;94436.19;;;20.60;27.88
20037;BME280;10179;42.640;23.312;2022-10-16T13:28:41;94501.06;;;21.02;28.46
20037;BME280;10179;42.640;23.312;2022-10-16T13:31:17;94489.03;;;21.04;28.31
20037;BME280;10179;42.640;23.312;2022-10-16T13:33:47;94487.44;;;21.03;28.66
20037;BME280;10179;42.640;23.312;2022-10-16T13:36:43;94502.88;;;21.27;28.59
20037;BME280;10179;42.640;23.312;2022-10-16T13:39:10;94518.91;;;21.27;28.56
20037;BME280;10179;42.640;23.312;2022-10-16T13:41:37;94522.13;;;21.29;28.76
20037;BME280;10179;42.640;23.312;2022-10-16T13:44:02;94520.53;;;21.28;28.80
20037;BME280;10179;42.640;23.312;2022-10-16T13:46:28;94518.13;;;21.26;28.54
20037;BME280;10179;42.640;23.312;2022-10-16T13:49:20;94527.47;;;21.29;28.32
20037;BME280;10179;42.640;23.312;2022-10-16T13:52:03;94508.50;;;21.30;28.14
20037;BME280;10179;42.640;23.312;2022-10-16T13:54:28;94522.41;;;21.32;28.51
20037;BME280;10179;42.640;23.312;2022-10-16T13:56:54;94520.00;;;21.36;28.60
20037;BME280;10179;42.640;23.312;2022-10-16T13:59:25;94523.50;;;21.41;28.51
20037;BME280;10179;42.640;23.312;2022-10-16T14:01:53;94520.00;;;21.41;28.12
20037;BME280;10179;42.640;23.312;2022-10-16T14:04:21;94520.00;;;21.41;27.93
20037;BME280;10179;42.640;23.312;2022-10-16T14:06:49;94427.66;;;20.79;28.16
20037;BME280;10179;42.640;23.312;2022-10-16T14:09:29;94512.50;;;21.43;27.98
20037;BME280;10179;42.640;23.312;2022-10-16T14:11:57;94528.00;;;21.46;27.89
20037;BME280;10179;42.640;23.312;2022-10-16T14:14:24;94530.69;;;21.46;27.79
20037;BME280;10179;42.640;23.312;2022-10-16T14:16:50;94440.16;;;20.93;28.29
20037;BME280;10179;42.640;23.312;2022-10-16T14:19:25;94518.41;;;21.40;28.51
20037;BME280;10179;42.640;23.312;2022-10-16T14:21:52;94534.69;;;21.43;28.87
20037;BME280;10179;42.640;23.312;2022-10-16T14:24:35;94533.34;;;21.46;29.10
20037;BME280;10179;42.640;23.312;2022-10-16T14:27:01;94518.94;;;21.32;29.18
20037;BME280;10179;42.640;23.312;2022-10-16T14:29:29;94426.56;;;20.69;29.34
20037;BME280;10179;42.640;23.312;2022-10-16T14:31:59;94541.66;;;21.39;29.50
20037;BME280;10179;42.640;23.312;2022-10-16T14:36:50;94554.75;;;21.26;28.98
20037;BME280;10179;42.640;23.312;2022-10-16T14:39:20;94489.06;;;20.79;29.08
20037;BME280;10179;42.640;23.312;2022-10-16T14:41:49;94550.47;;;21.09;29.23
20037;BME280;10179;42.640;23.312;2022-10-16T14:44:15;94437.22;;;20.34;28.95
20037;BME280;10179;42.640;23.312;2022-10-16T14:46:43;94463.63;;;20.35;29.12
20037;BME280;10179;42.640;23.312;2022-10-16T14:51:35;94524.81;;;20.62;29.05
20037;BME280;10179;42.640;23.312;2022-10-16T14:54:01;94463.88;;;20.08;29.25
20037;BME280;10179;42.640;23.312;2022-10-16T14:56:34;94533.28;;;20.39;29.17
20037;BME280;10179;42.640;23.312;2022-10-16T14:59:12;94421.03;;;19.57;29.24
20037;BME280;10179;42.640;23.312;2022-10-16T15:01:39;94578.69;;;20.49;29.50
20037;BME280;10179;42.640;23.312;2022-10-16T15:04:07;94567.94;;;20.23;29.25
20037;BME280;10179;42.640;23.312;2022-10-16T15:06:32;94558.88;;;20.19;29.48
20037;BME280;10179;42.640;23.312;2022-10-16T15:08:57;94539.59;;;20.02;29.57